首页
METAR-TAF:

METAR-TAF

机场 :

孔戈尼亚斯/圣保罗机场

聖保羅, 圣保罗州, 巴西

纬度: 23-37S, 经度: 046-39W, 海拔: 803米

当前天气观测

该预报发布于21分钟前的03:22 UTC
风速7节,风向
温度 16°C
湿度 94%
气压 1021 hPa
能见度10公里或以上

METAR: SBSP 170322Z AUTO 17007KT 9999 // BKN004/// BKN013/// OVC019/// 16/15 Q1021

时间: 00:43 (03:43 UTC)

预报

该预报发布于6小时和43分钟前的21:00 UTC
预报有效从17日的 00点(UTC)到 17日的 12点(UTC)
风速10节,风向
能見度: 8000
阴天层高于600英尺
短暂存在
从 17日的 00点(UTC)到 17日的 05点(UTC)
能見度: 3000
阴天层高于300英尺
毛毛雨, 轻雾

TAF: SBSP 162100Z 1700/1712 17010KT 8000 OVC006 TX17/1700Z TN15/1709Z TEMPO 1700/1705 3000 DZ BR OVC003 RMK PGF

超过4000个机场的气象观测和天气预报(METAR&TAF报告)。

可查询的气象台以黄色和红色小点在地图上表示。

将鼠标移到小点上方,可查看气象台名称。

然后点击查看天气观测和预报。

如需切换地图:点击带黑十字的绿色按钮放大地图;点击带横线的绿色按钮缩小地图;或者点击绿色箭头查看邻近地区的地图。


METAR-TAF: